Time,TemperatureF,DewpointF,PressureIn,WindDirection,WindDirectionDegrees,WindSpeedMPH,WindSpeedGustMPH,Humidity,HourlyPrecipIn,Conditions,Clouds,dailyrainin,SoftwareType,DateUTC
2013-12-08 00:01:00,27.2,26.0,30.49,WSW,257,0.0,0.0,93,0.00,,,0.00,weatherlink.com 1.10,2013-12-08 05:01:00,
2013-12-08 00:16:00,26.9,25.0,30.49,NNW,336,0.0,0.0,93,0.00,,,0.00,weatherlink.com 1.10,2013-12-08 05:16:00,
2013-12-08 00:31:00,28.0,25.0,30.49,NNW,330,0.0,2.0,89,0.00,,,0.00,weatherlink.com 1.10,2013-12-08 05:31:00,
2013-12-08 00:47:00,28.0,25.0,30.49,NNW,338,0.0,0.0,89,0.00,,,0.00,weatherlink.com 1.10,2013-12-08 05:47:00,
2013-12-08 01:02:00,27.1,25.0,30.50,NW,324,0.0,0.0,91,0.00,,,0.00,weatherlink.com 1.10,2013-12-08 06:02:00,
2013-12-08 01:17:00,26.3,24.0,30.50,WNW,297,0.0,0.0,92,0.00,,,0.00,weatherlink.com 1.10,2013-12-08 06:17:00,
2013-12-08 01:32:00,25.4,23.0,30.51,WNW,297,0.0,0.0,92,0.00,,,0.00,weatherlink.com 1.10,2013-12-08 06:32:00,
2013-12-08 01:47:00,25.6,24.0,30.51,WNW,299,0.0,0.0,93,0.00,,,0.00,weatherlink.com 1.10,2013-12-08 06:47:00,
2013-12-08 02:02:00,25.9,24.0,30.51,North,354,0.0,2.0,92,0.00,,,0.00,weatherlink.com 1.10,2013-12-08 07:02:00,
2013-12-08 02:17:00,26.9,24.0,30.52,NW,326,2.0,2.0,89,0.00,,,0.00,weatherlink.com 1.10,2013-12-08 07:17:00,
2013-12-08 02:32:00,27.1,24.0,30.52,North,351,0.0,2.0,87,0.00,,,0.00,weatherlink.com 1.10,2013-12-08 07:32:00,
2013-12-08 02:47:00,26.9,23.0,30.52,North,1,0.0,2.0,86,0.00,,,0.00,weatherlink.com 1.10,2013-12-08 07:47:00,
2013-12-08 03:02:00,26.7,23.0,30.53,NNW,328,0.0,1.0,86,0.00,,,0.00,weatherlink.com 1.10,2013-12-08 08:02:00,
2013-12-08 03:17:00,25.8,23.0,30.52,NW,304,0.0,0.0,89,0.00,,,0.00,weatherlink.com 1.10,2013-12-08 08:17:00,
2013-12-08 03:32:00,25.5,23.0,30.52,WNW,300,0.0,0.0,89,0.00,,,0.00,weatherlink.com 1.10,2013-12-08 08:32:00,
2013-12-08 03:47:00,24.5,22.0,30.52,NNE,30,0.0,0.0,90,0.00,,,0.00,weatherlink.com 1.10,2013-12-08 08:47:00,
2013-12-08 04:02:00,24.8,22.0,30.52,NW,320,0.0,2.0,90,0.00,,,0.00,weatherlink.com 1.10,2013-12-08 09:02:00,
2013-12-08 04:17:00,24.5,22.0,30.52,North,5,0.0,1.0,90,0.00,,,0.00,weatherlink.com 1.10,2013-12-08 09:17:00,
2013-12-08 04:32:00,23.8,22.0,30.53,North,5,0.0,0.0,92,0.00,,,0.00,weatherlink.com 1.10,2013-12-08 09:32:00,
2013-12-08 04:47:00,23.0,21.0,30.52,North,6,0.0,0.0,93,0.00,,,0.00,weatherlink.com 1.10,2013-12-08 09:47:00,
2013-12-08 05:02:00,22.9,21.0,30.52,North,6,0.0,0.0,93,0.00,,,0.00,weatherlink.com 1.10,2013-12-08 10:02:00,
2013-12-08 05:17:00,24.3,22.0,30.54,NNE,17,0.0,1.0,92,0.00,,,0.00,weatherlink.com 1.10,2013-12-08 10:17:00,
2013-12-08 05:32:00,25.0,22.0,30.54,NNE,28,0.0,2.0,88,0.00,,,0.00,weatherlink.com 1.10,2013-12-08 10:32:00,
2013-12-08 05:47:00,25.5,22.0,30.53,North,4,1.0,2.0,87,0.00,,,0.00,weatherlink.com 1.10,2013-12-08 10:47:00,
2013-12-08 06:02:00,25.9,22.0,30.55,NNW,334,1.0,4.0,86,0.00,,,0.00,weatherlink.com 1.10,2013-12-08 11:02:00,
2013-12-08 06:17:00,25.8,22.0,30.54,North,356,0.0,2.0,86,0.00,,,0.00,weatherlink.com 1.10,2013-12-08 11:17:00,
2013-12-08 06:32:00,26.1,23.0,30.54,North,359,1.0,2.0,86,0.00,,,0.00,weatherlink.com 1.10,2013-12-08 11:32:00,
2013-12-08 06:47:00,26.3,22.0,30.55,North,359,2.0,4.0,84,0.00,,,0.00,weatherlink.com 1.10,2013-12-08 11:47:00,
2013-12-08 07:02:00,26.5,22.0,30.55,NNE,30,1.0,5.0,83,0.00,,,0.00,weatherlink.com 1.10,2013-12-08 12:02:00,
2013-12-08 07:17:00,26.9,22.0,30.57,NNE,23,1.0,5.0,81,0.00,,,0.00,weatherlink.com 1.10,2013-12-08 12:17:00,
2013-12-08 07:32:00,27.0,22.0,30.58,NNE,25,1.0,6.0,80,0.00,,,0.00,weatherlink.com 1.10,2013-12-08 12:32:00,
2013-12-08 07:47:00,27.1,22.0,30.56,NNW,344,2.0,5.0,80,0.00,,,0.00,weatherlink.com 1.10,2013-12-08 12:47:00,
2013-12-08 08:02:00,27.1,21.0,30.55,NE,37,4.0,9.0,79,0.00,,,0.00,weatherlink.com 1.10,2013-12-08 13:02:00,
2013-12-08 08:17:00,27.3,22.0,30.54,North,355,2.0,7.0,79,0.00,,,0.00,weatherlink.com 1.10,2013-12-08 13:17:00,
2013-12-08 08:32:00,27.4,22.0,30.51,NE,35,6.0,13.0,79,0.00,,,0.00,weatherlink.com 1.10,2013-12-08 13:32:00,
2013-12-08 08:47:00,27.5,21.0,30.52,NNE,20,4.0,9.0,77,0.00,,,0.00,weatherlink.com 1.10,2013-12-08 13:47:00,
2013-12-08 09:02:00,27.9,21.0,30.52,NNE,30,2.0,7.0,75,0.00,,,0.00,weatherlink.com 1.10,2013-12-08 14:02:00,
2013-12-08 09:17:00,28.3,21.0,30.52,ENE,57,2.0,9.0,75,0.00,,,0.00,weatherlink.com 1.10,2013-12-08 14:17:00,
2013-12-08 09:32:00,28.6,21.0,30.54,NNE,28,1.0,8.0,74,0.00,,,0.00,weatherlink.com 1.10,2013-12-08 14:32:00,
2013-12-08 09:47:00,28.8,22.0,30.56,NE,37,2.0,6.0,74,0.00,,,0.00,weatherlink.com 1.10,2013-12-08 14:47:00,
2013-12-08 10:02:00,29.2,22.0,30.56,North,359,1.0,3.0,75,0.00,,,0.00,weatherlink.com 1.10,2013-12-08 15:02:00,
2013-12-08 10:17:00,29.4,21.0,30.56,NNW,347,2.0,7.0,72,0.00,,,0.00,weatherlink.com 1.10,2013-12-08 15:17:00,
2013-12-08 10:32:00,29.7,22.0,30.56,NNE,25,2.0,7.0,73,0.00,,,0.00,weatherlink.com 1.10,2013-12-08 15:32:00,
2013-12-08 10:47:00,29.8,22.0,30.55,NNE,29,4.0,8.0,74,0.00,,,0.00,weatherlink.com 1.10,2013-12-08 15:47:00,
2013-12-08 11:02:00,29.8,23.0,30.56,North,354,3.0,9.0,75,0.00,,,0.00,weatherlink.com 1.10,2013-12-08 16:02:00,
2013-12-08 11:17:00,29.8,24.0,30.55,NE,46,5.0,6.0,78,0.00,,,0.00,weatherlink.com 1.10,2013-12-08 16:17:00,
2013-12-08 11:32:00,29.8,25.0,30.54,NE,41,3.0,7.0,82,0.00,,,0.00,weatherlink.com 1.10,2013-12-08 16:32:00,
2013-12-08 11:47:00,28.8,26.0,30.55,NW,322,1.0,4.0,89,0.00,,,0.00,weatherlink.com 1.10,2013-12-08 16:47:00,
2013-12-08 12:03:00,27.9,26.0,30.51,NNE,15,4.0,6.0,92,0.00,,,0.00,weatherlink.com 1.10,2013-12-08 17:03:00,
2013-12-08 12:18:00,27.4,26.0,30.50,NE,39,4.0,9.0,93,0.00,,,0.00,weatherlink.com 1.10,2013-12-08 17:18:00,
2013-12-08 12:33:00,27.3,26.0,30.50,NNE,25,3.0,9.0,93,0.00,,,0.00,weatherlink.com 1.10,2013-12-08 17:33:00,
2013-12-08 12:48:00,27.3,26.0,30.51,NNW,331,2.0,6.0,93,0.00,,,0.00,weatherlink.com 1.10,2013-12-08 17:48:00,
2013-12-08 13:03:00,27.5,26.0,30.50,North,11,1.0,5.0,93,0.00,,,0.00,weatherlink.com 1.10,2013-12-08 18:03:00,
2013-12-08 13:18:00,27.5,26.0,30.52,NNW,333,0.0,6.0,93,0.00,,,0.00,weatherlink.com 1.10,2013-12-08 18:18:00,
2013-12-08 13:33:00,27.5,26.0,30.51,North,354,2.0,6.0,93,0.00,,,0.00,weatherlink.com 1.10,2013-12-08 18:33:00,
2013-12-08 13:48:00,27.6,26.0,30.50,NNW,348,2.0,6.0,93,0.00,,,0.00,weatherlink.com 1.10,2013-12-08 18:48:00,
2013-12-08 14:03:00,27.5,26.0,30.49,NNE,25,2.0,5.0,93,0.00,,,0.00,weatherlink.com 1.10,2013-12-08 19:03:00,
2013-12-08 14:18:00,27.6,26.0,30.48,NE,55,4.0,6.0,93,0.00,,,0.00,weatherlink.com 1.10,2013-12-08 19:18:00,
2013-12-08 14:33:00,27.6,26.0,30.47,North,349,3.0,6.0,93,0.00,,,0.00,weatherlink.com 1.10,2013-12-08 19:33:00,
2013-12-08 14:48:00,27.7,26.0,30.45,NE,51,2.0,7.0,93,0.00,,,0.00,weatherlink.com 1.10,2013-12-08 19:48:00,
2013-12-08 15:03:00,27.8,26.0,30.45,NNE,32,5.0,8.0,93,0.00,,,0.00,weatherlink.com 1.10,2013-12-08 20:03:00,
2013-12-08 15:18:00,28.1,26.0,30.45,NE,46,2.0,8.0,93,0.00,,,0.00,weatherlink.com 1.10,2013-12-08 20:18:00,
2013-12-08 15:33:00,28.3,27.0,30.45,NE,47,6.0,7.0,93,0.00,,,0.00,weatherlink.com 1.10,2013-12-08 20:33:00,
2013-12-08 15:48:00,28.5,27.0,30.45,NNE,33,4.0,6.0,93,0.00,,,0.00,weatherlink.com 1.10,2013-12-08 20:48:00,
2013-12-08 16:03:00,28.6,27.0,30.44,NE,56,6.0,7.0,93,0.00,,,0.00,weatherlink.com 1.10,2013-12-08 21:03:00,
2013-12-08 16:18:00,28.7,27.0,30.46,North,356,5.0,6.0,93,0.00,,,0.00,weatherlink.com 1.10,2013-12-08 21:18:00,
2013-12-08 16:33:00,28.7,27.0,30.48,NNE,16,5.0,7.0,93,0.00,,,0.00,weatherlink.com 1.10,2013-12-08 21:33:00,
2013-12-08 16:48:00,28.6,27.0,30.46,NNE,14,4.0,8.0,93,0.00,,,0.00,weatherlink.com 1.10,2013-12-08 21:48:00,
2013-12-08 17:03:00,28.6,27.0,30.47,NNE,30,4.0,8.0,93,0.00,,,0.00,weatherlink.com 1.10,2013-12-08 22:03:00,
2013-12-08 17:18:00,28.6,27.0,30.46,NNE,25,3.0,8.0,93,0.00,,,0.00,weatherlink.com 1.10,2013-12-08 22:18:00,
2013-12-08 17:33:00,28.6,27.0,30.44,NNE,32,6.0,10.0,93,0.00,,,0.00,weatherlink.com 1.10,2013-12-08 22:33:00,
2013-12-08 17:48:00,28.6,27.0,30.44,NNE,22,4.0,9.0,93,0.00,,,0.00,weatherlink.com 1.10,2013-12-08 22:48:00,
2013-12-08 18:03:00,28.5,27.0,30.44,NNE,23,4.0,9.0,93,0.00,,,0.00,weatherlink.com 1.10,2013-12-08 23:03:00,
2013-12-08 18:18:00,28.6,27.0,30.45,NNE,20,4.0,8.0,93,0.00,,,0.00,weatherlink.com 1.10,2013-12-08 23:18:00,
2013-12-08 18:33:00,28.7,27.0,30.45,NNE,26,6.0,9.0,93,0.00,,,0.00,weatherlink.com 1.10,2013-12-08 23:33:00,
2013-12-08 18:48:00,28.9,27.0,30.43,NNE,16,3.0,7.0,93,0.00,,,0.00,weatherlink.com 1.10,2013-12-08 23:48:00,
2013-12-08 19:03:00,29.1,27.0,30.43,NE,49,6.0,7.0,93,0.00,,,0.00,weatherlink.com 1.10,2013-12-09 00:03:00,
2013-12-08 19:18:00,29.2,28.0,30.43,NNE,28,2.0,6.0,93,0.00,,,0.00,weatherlink.com 1.10,2013-12-09 00:18:00,
2013-12-08 19:33:00,29.5,28.0,30.41,NE,47,3.0,11.0,93,0.00,,,0.00,weatherlink.com 1.10,2013-12-09 00:33:00,
2013-12-08 19:48:00,29.7,28.0,30.41,ENE,58,4.0,9.0,93,0.00,,,0.00,weatherlink.com 1.10,2013-12-09 00:48:00,
2013-12-08 20:03:00,30.0,28.0,30.41,North,8,3.0,8.0,93,0.00,,,0.00,weatherlink.com 1.10,2013-12-09 01:03:00,
2013-12-08 20:18:00,30.1,28.0,30.39,NNE,27,4.0,9.0,93,0.00,,,0.00,weatherlink.com 1.10,2013-12-09 01:18:00,
2013-12-08 20:33:00,30.2,29.0,30.39,NE,46,4.0,8.0,93,0.00,,,0.00,weatherlink.com 1.10,2013-12-09 01:33:00,
2013-12-08 20:48:00,30.5,29.0,30.38,NNE,23,3.0,8.0,93,0.00,,,0.00,weatherlink.com 1.10,2013-12-09 01:48:00,
2013-12-08 21:03:00,30.8,29.0,30.35,NE,40,5.0,8.0,93,0.00,,,0.00,weatherlink.com 1.10,2013-12-09 02:03:00,
2013-12-08 21:18:00,31.0,29.0,30.34,NE,46,3.0,8.0,93,0.00,,,0.00,weatherlink.com 1.10,2013-12-09 02:18:00,
2013-12-08 21:33:00,31.2,30.0,30.33,NNE,27,3.0,7.0,94,0.00,,,0.00,weatherlink.com 1.10,2013-12-09 02:33:00,
2013-12-08 21:48:00,31.5,30.0,30.31,NE,54,4.0,8.0,94,0.00,,,0.00,weatherlink.com 1.10,2013-12-09 02:48:00,
2013-12-08 22:03:00,31.7,30.0,30.31,NE,42,4.0,9.0,94,0.00,,,0.00,weatherlink.com 1.10,2013-12-09 03:03:00,
2013-12-08 22:18:00,31.9,30.0,30.32,North,354,3.0,7.0,94,0.00,,,0.00,weatherlink.com 1.10,2013-12-09 03:18:00,
2013-12-08 22:33:00,31.9,30.0,30.31,NE,49,2.0,4.0,94,0.00,,,0.00,weatherlink.com 1.10,2013-12-09 03:33:00,
2013-12-08 22:48:00,32.0,31.0,30.31,NE,34,4.0,5.0,94,0.00,,,0.00,weatherlink.com 1.10,2013-12-09 03:48:00,
2013-12-08 23:03:00,32.1,31.0,30.30,NNW,341,2.0,7.0,94,0.00,,,0.00,weatherlink.com 1.10,2013-12-09 04:03:00,
2013-12-08 23:18:00,32.1,31.0,30.29,NNE,25,3.0,7.0,94,0.00,,,0.00,weatherlink.com 1.10,2013-12-09 04:18:00,
2013-12-08 23:33:00,32.3,31.0,30.29,NNE,31,3.0,6.0,94,0.00,,,0.00,weatherlink.com 1.10,2013-12-09 04:33:00,
2013-12-08 23:48:00,32.3,31.0,30.29,NW,312,2.0,6.0,94,0.00,,,0.00,weatherlink.com 1.10,2013-12-09 04:48:00,